Data for 12/22/2012

Time Sea-Level Adjusted Pressure Absolute Pressure Temperature Relative Humidity Dew Point Precipitation   
(mb) (inHg) (mb) (inHg) (C) (F) (%) (C) (F) (mm) (in)
00:01 1016 30 846 24.98 -4.8 23.3 49 -14 6.8 0 0
00:02 1016 30 846 24.98 -5.7 21.7 54 -13.7 7.3 0 0
00:03 1016 30 846 24.98 -6.4 20.5 55 -13.9 6.9 0 0
00:04 1016 30 845 24.95 -6.8 19.7 58 -13.9 7 0 0
00:05 1016 30 846 24.98 -7 19.3 59 -13.7 7.4 0 0
00:06 1016 30 846 24.98 -6.6 20.1 58 -13.6 7.6 0 0
00:07 1016 30 846 24.98 -6.3 20.7 54 -14.1 6.6 0 0
00:08 1016 30 845 24.95 -6.5 20.3 56 -13.9 7 0 0
00:09 1016 30 845 24.95 -6.8 19.8 56 -14 6.7 0 0
00:10 1016 30 845 24.95 -6.9 19.7 59 -13.7 7.4 0 0
00:11 1016 30 845 24.95 -6.6 20.1 57 -13.8 7.2 0 0
00:12 1016 30 845 24.95 -6.4 20.5 56 -13.7 7.3 0 0
00:13 1016 30 845 24.95 -6.1 20.9 56 -13.6 7.5 0 0
00:14 1016 30 845 24.95 -5.9 21.3 55 -13.6 7.6 0 0
00:15 1016 30 845 24.95 -6 21.3 54 -13.8 7.2 0 0
00:16 1016 30 845 24.95 -6.5 20.4 57 -13.7 7.4 0 0
00:17 1016 30 845 24.95 -6.4 20.5 57 -13.5 7.7 0 0
00:18 1016 30 845 24.95 -6 21.1 56 -13.6 7.6 0 0
00:19 1016 30 845 24.95 -6 21.2 55 -13.7 7.4 0 0
00:20 1016 30 845 24.95 -6.3 20.6 57 -13.6 7.5 0 0
00:21 1016 30 845 24.95 -6.8 19.8 58 -13.6 7.5 0 0
00:22 1016 30 845 24.95 -7.1 19.2 60 -13.7 7.4 0 0
00:23 1016 30 845 24.95 -7.3 18.9 61 -13.5 7.6 0 0
00:24 1016 30 845 24.95 -7 19.3 60 -13.6 7.6 0 0
00:25 1016 30 845 24.95 -7.1 19.3 61 -13.5 7.8 0 0
00:26 1016 30 845 24.95 -7.4 18.8 61 -13.7 7.3 0 0
00:27 1016 30 845 24.95 -7.5 18.5 61 -13.9 7 0 0
00:28 1016 30 845 24.95 -7.3 18.9 59 -14 6.7 0 0
00:29 1016 30 845 24.95 -6.9 19.6 57 -14 6.8 0 0
00:30 1016 30 845 24.95 -6.7 20 56 -14 6.8 0 0
00:31 1016 30 845 24.95 -6.4 20.5 55 -14 6.8 0 0
00:32 1016 30 845 24.95 -6.1 21.1 54 -14 6.9 0 0
00:33 1016 30 845 24.95 -5.8 21.6 52 -14 6.8 0 0
00:34 1016 30 845 24.95 -5.3 22.4 52 -13.8 7.2 0 0
00:35 1016 30 845 24.95 -5.1 22.8 50 -13.9 7 0 0
00:36 1016 30 845 24.95 -4.9 23.2 50 -13.7 7.3 0 0
00:37 1016 30 845 24.95 -4.9 23.2 50 -13.7 7.4 0 0
00:38 1016 30 845 24.95 -5.1 22.9 51 -13.6 7.5 0 0
00:39 1016 30 845 24.95 -5.3 22.5 54 -13.3 8 0 0
00:40 1016 30 845 24.95 -5.6 21.9 55 -13.4 8 0 0
00:41 1016 30 845 24.95 -5.8 21.5 56 -13.3 8.1 0 0
00:42 1016 30 845 24.95 -6 21.3 57 -13.2 8.2 0 0
00:43 1016 30 845 24.95 -6 21.1 57 -13.2 8.2 0 0
00:44 1016 30 845 24.95 -6.1 21.1 57 -13.2 8.3 0 0
00:45 1016 30 845 24.95 -6.1 21 58 -13.1 8.3 0 0
00:46 1016 30 845 24.95 -6.2 20.9 59 -13 8.5 0 0
00:47 1016 30 845 24.95 -6 21.2 57 -13.2 8.3 0 0
00:48 1016 30 845 24.95 -6 21.3 57 -13.2 8.3 0 0
00:49 1016 30 845 24.95 -6.4 20.6 59 -13.2 8.3 0 0
00:50 1016 30 845 24.95 -6.6 20 60 -13.2 8.3 0 0
00:51 1016 30 845 24.95 -6.6 20.1 59 -13.3 8.1 0 0
00:52 1016 30 845 24.95 -6.7 20 60 -13.3 8.1 0 0
00:53 1016 30 845 24.95 -7 19.4 61 -13.3 8.1 0 0
00:54 1016 30 845 24.95 -7.4 18.7 63 -13.3 8 0 0
00:55 1016 30 845 24.95 -7.8 18 65 -13.2 8.2 0 0
00:56 1016 30 845 24.95 -7.9 17.8 66 -13.2 8.2 0 0
00:57 1016 30 845 24.95 -7.7 18.2 65 -13.2 8.3 0 0
00:58 1016 30 845 24.95 -7.5 18.5 64 -13.1 8.4 0 0
00:59 1016 30 845 24.95 -7.4 18.7 64 -13 8.6 0 0
01:00 1016 30 845 24.95 -7.5 18.6 65 -12.9 8.7 0 0
01:01 1016 30 845 24.95 -7.4 18.8 64 -13 8.6 0 0
01:02 1016 30 845 24.95 -7.2 19.1 64 -12.9 8.7 0 0
01:03 1016 30 845 24.95 -7.3 18.9 64 -13 8.6 0 0
01:04 1016 30 845 24.95 -7.2 19 64 -13 8.7 0 0
01:05 1016 30 845 24.95 -7.1 19.3 63 -13 8.5 0 0
01:06 1016 30 845 24.95 -6.8 19.7 62 -13 8.7 0 0
01:07 1016 30 845 24.95 -7 19.4 63 -12.9 8.9 0 0
01:08 1016 30 845 24.95 -7.3 19 64 -12.9 8.8 0 0
01:09 1016 30 845 24.95 -7.5 18.5 66 -12.9 8.8 0 0
01:10 1016 30 845 24.95 -7.6 18.4 67 -12.8 9 0 0
01:11 1016 30 845 24.95 -7.7 18.2 67 -12.8 9 0 0
01:12 1016 30 845 24.95 -7.5 18.6 66 -12.7 9.1 0 0
01:13 1016 30 845 24.95 -7.2 19.1 65 -12.7 9.2 0 0
01:14 1016 30 845 24.95 -7 19.4 64 -12.7 9.1 0 0
01:15 1016 30 845 24.95 -6.8 19.7 63 -12.8 9 0 0
01:16 1016 30 845 24.95 -6.9 19.6 62 -13 8.7 0 0
01:17 1016 30 845 24.95 -7.1 19.3 63 -13 8.6 0 0
01:18 1016 30 845 24.95 -7.2 19 65 -12.8 8.9 0 0
01:19 1016 30 845 24.95 -6.6 20.1 61 -13 8.7 0 0
01:20 1016 30 845 24.95 -6.4 20.5 60 -12.9 8.8 0 0
01:21 1016 30 845 24.95 -6.2 20.9 60 -12.8 8.9 0 0
01:22 1016 30 845 24.95 -6.1 21.1 59 -12.9 8.8 0 0
01:23 1016 30 845 24.95 -6.1 21 59 -12.9 8.9 0 0
01:24 1016 30 845 24.95 -5.8 21.6 57 -12.9 8.8 0 0
01:25 1016 30 845 24.95 -5.7 21.8 56 -13 8.5 0 0
01:26 1016 30 845 24.95 -5.5 22.1 56 -13.1 8.4 0 0
01:27 1016 30 845 24.95 -5.5 22.1 55 -13.1 8.4 0 0
01:28 1016 30 845 24.95 -6 21.3 57 -13.2 8.3 0 0
01:29 1016 30 845 24.95 -6.6 20.1 60 -13.2 8.3 0 0
01:30 1016 30 845 24.95 -7 19.5 61 -13.3 8 0 0
01:31 1016 30 845 24.95 -7.1 19.2 62 -13.2 8.2 0 0
01:32 1016 30 845 24.95 -7.2 19 61 -13.4 7.8 0 0
01:33 1016 30 845 24.95 -7.2 19 61 -13.5 7.8 0 0
01:34 1016 30 845 24.95 -7.4 18.7 61 -13.6 7.5 0 0
01:35 1016 30 845 24.95 -7.3 18.9 60 -13.7 7.3 0 0
01:36 1016 30 845 24.95 -6.8 19.8 58 -13.8 7.1 0 0
01:37 1016 30 845 24.95 -6.4 20.4 57 -13.6 7.5 0 0
01:38 1016 30 845 24.95 -6.7 20 58 -13.7 7.4 0 0
01:39 1016 30 845 24.95 -6.9 19.6 59 -13.6 7.6 0 0
01:40 1016 30 845 24.95 -6.9 19.6 58 -13.8 7.1 0 0
01:41 1016 30 845 24.95 -7.2 19 60 -13.7 7.3 0 0
01:42 1016 30 845 24.95 -7.2 19 61 -13.6 7.5 0 0
01:43 1016 30 845 24.95 -6.8 19.7 59 -13.6 7.6 0 0
01:44 1016 30 845 24.95 -6.3 20.6 57 -13.5 7.7 0 0
01:45 1016 30 845 24.95 -6 21.2 55 -13.6 7.6 0 0
01:46 1016 30 845 24.95 -5.7 21.7 54 -13.5 7.6 0 0
01:47 1016 30 845 24.95 -5.3 22.5 53 -13.5 7.8 0 0
01:48 1016 30 845 24.95 -5 23 52 -13.5 7.7 0 0
01:49 1016 30 845 24.95 -4.8 23.3 51 -13.6 7.6 0 0
01:50 1016 30 845 24.95 -4.6 23.8 50 -13.6 7.6 0 0
01:51 1016 30 845 24.95 -4.5 24 50 -13.5 7.7 0 0
01:52 1016 30 845 24.95 -4.6 23.7 50 -13.6 7.5 0 0
01:53 1016 30 845 24.95 -4.9 23.1 50 -13.9 7 0 0
01:54 1016 30 845 24.95 -5.3 22.5 52 -13.5 7.6 0 0
01:55 1016 30 845 24.95 -4.9 23.2 51 -13.6 7.5 0 0
01:56 1016 30 845 24.95 -4.8 23.3 49 -13.9 7 0 0
01:57 1016 30 845 24.95 -5 22.9 51 -13.7 7.3 0 0
01:58 1016 30 845 24.95 -5.1 22.7 50 -13.9 7 0 0
01:59 1016 30 845 24.95 -5.2 22.7 52 -13.7 7.4 0 0
02:00 1016 30 845 24.95 -4.7 23.6 50 -13.6 7.5 0 0
02:01 1016 30 845 24.95 -4 24.7 48 -13.6 7.5 0 0
02:02 1016 30 845 24.95 -3.9 25 46 -13.8 7.2 0 0
02:03 1016 30 845 24.95 -4.3 24.3 48 -13.8 7.2 0 0
02:04 1016 30 845 24.95 -5 23.1 49 -14.2 6.5 0 0
02:05 1016 30 845 24.95 -5.8 21.6 53 -14 6.8 0 0
02:06 1016 30 845 24.95 -5.9 21.3 55 -13.7 7.3 0 0
02:07 1016 30 845 24.95 -6 21.2 53 -14.1 6.7 0 0
02:08 1016 30 845 24.95 -6.6 20.2 56 -14 6.8 0 0
02:09 1016 30 845 24.95 -6.9 19.6 56 -14.3 6.3 0 0
02:10 1016 30 845 24.95 -7.2 19.1 57 -14.3 6.3 0 0
02:11 1016 30 845 24.95 -7.4 18.6 58 -14.2 6.4 0 0
02:12 1016 30 845 24.95 -7.4 18.7 59 -14 6.8 0 0
02:13 1016 30 845 24.95 -6.8 19.8 57 -13.9 7 0 0
02:14 1016 30 845 24.95 -5.9 21.3 54 -13.8 7.2 0 0
02:15 1016 30 845 24.95 -5.1 22.8 51 -13.8 7.2 0 0
02:16 1016 30 845 24.95 -4.7 23.6 49 -13.9 7 0 0
02:17 1016 30 845 24.95 -4.7 23.6 50 -13.7 7.4 0 0
02:18 1016 30 845 24.95 -4.3 24.2 47 -14 6.8 0 0
02:19 1016 30 845 24.95 -4.5 24 49 -13.8 7.2 0 0
02:20 1016 30 845 24.95 -4 24.8 46 -13.9 7 0 0
02:21 1016 30 845 24.95 -3.7 25.3 45 -14 6.9 0 0
02:22 1016 30 845 24.95 -3.6 25.5 46 -13.7 7.3 0 0
02:23 1016 30 845 24.95 -3.2 26.2 44 -13.8 7.2 0 0
02:24 1016 30 845 24.95 -3 26.5 43 -14 6.8 0 0
02:25 1016 30 845 24.95 -3.6 25.5 44 -14.1 6.6 0 0
02:26 1016 30 845 24.95 -4.8 23.4 48 -14.3 6.3 0 0
02:27 1016 30 845 24.95 -5.8 21.6 52 -14.2 6.5 0 0
02:28 1016 30 845 24.95 -6 21.2 53 -14.2 6.5 0 0
02:29 1016 30 845 24.95 -6.3 20.7 53 -14.4 6.1 0 0
02:30 1016 30 845 24.95 -6.8 19.7 55 -14.5 6 0 0
02:31 1016 30 845 24.95 -7 19.3 57 -14.2 6.5 0 0
02:32 1016 30 845 24.95 -6.1 21 54 -14.1 6.6 0 0
02:33 1016 30 845 24.95 -5.2 22.6 50 -14.1 6.6 0 0
02:34 1016 30 845 24.95 -4.8 23.4 49 -14 6.9 0 0
02:35 1016 30 845 24.95 -4.6 23.8 48 -13.9 6.9 0 0
02:36 1016 30 845 24.95 -4.7 23.6 48 -14 6.9 0 0
02:37 1016 30 845 24.95 -4.6 23.8 48 -13.9 6.9 0 0
02:38 1016 30 845 24.95 -4.7 23.5 49 -13.9 6.9 0 0
02:39 1016 30 845 24.95 -4.8 23.3 49 -14 6.9 0 0
02:40 1016 30 845 24.95 -4.8 23.3 49 -13.9 7 0 0
02:41 1016 30 845 24.95 -4.7 23.5 49 -14 6.8 0 0
02:42 1016 30 845 24.95 -4.5 24 47 -14.2 6.4 0 0
02:43 1016 30 845 24.95 -4.2 24.4 46 -14.1 6.6 0 0
02:44 1016 30 845 24.95 -3.8 25.2 45 -14 6.7 0 0
02:45 1016 30 845 24.95 -3.7 25.3 45 -13.9 7 0 0
02:46 1016 30 845 24.95 -3.8 25.1 45 -14.1 6.7 0 0
02:47 1016 30 845 24.95 -4 24.8 46 -14.1 6.6 0 0
02:48 1016 30 845 24.95 -4.5 23.9 47 -14.2 6.5 0 0
02:49 1016 30 845 24.95 -4.9 23.1 49 -14.1 6.5 0 0
02:50 1016 30 845 24.95 -5.1 22.8 49 -14.2 6.5 0 0
02:51 1016 30 845 24.95 -5.2 22.6 50 -14.2 6.5 0 0
02:52 1016 30 845 24.95 -5.3 22.4 50 -14.2 6.5 0 0
02:53 1016 30 845 24.95 -5.5 22.2 51 -14.2 6.5 0 0
02:54 1016 30 845 24.95 -5.1 22.8 49 -14.2 6.4 0 0
02:55 1016 30 845 24.95 -5.2 22.6 50 -14 6.7 0 0
02:56 1016 30 845 24.95 -4.9 23.3 49 -14.1 6.7 0 0
02:57 1016 30 845 24.95 -4.3 24.2 47 -14 6.7 0 0
02:58 1016 30 845 24.95 -4.2 24.4 47 -14 6.9 0 0
02:59 1016 30 845 24.95 -4.7 23.6 49 -13.9 7 0 0
03:00 1016 30 845 24.95 -5.2 22.7 51 -13.8 7.2 0 0
03:01 1016 30 845 24.95 -5.4 22.3 51 -14 6.9 0 0
03:02 1016 30 845 24.95 -5.9 21.4 52 -14.2 6.4 0 0
03:03 1016 30 845 24.95 -5.8 21.6 51 -14.4 6 0 0
03:04 1016 30 845 24.95 -4.9 23.2 47 -14.5 6 0 0
03:05 1016 30 845 24.95 -4.9 23.1 47 -14.5 5.8 0 0
03:06 1016 30 845 24.95 -5.9 21.4 51 -14.5 5.9 0 0
03:07 1016 30 845 24.95 -6.7 19.9 54 -14.5 5.8 0 0
03:08 1016 30 845 24.95 -7.4 18.7 56 -14.7 5.5 0 0
03:09 1016 30 845 24.95 -8 17.6 58 -14.9 5.2 0 0
03:10 1016 30 845 24.95 -8.4 16.9 60 -14.8 5.3 0 0
03:11 1016 30 845 24.95 -8.5 16.7 61 -14.8 5.3 0 0
03:12 1016 30 845 24.95 -8.5 16.6 60 -15 5 0 0
03:13 1016 30 845 24.95 -8.8 16.1 61 -15 4.9 0 0
03:14 1016 30 845 24.95 -9.3 15.4 63 -15.1 4.8 0 0
03:15 1016 30 845 24.95 -9.6 14.8 64 -15.2 4.7 0 0
03:16 1016 30 845 24.95 -9.6 14.7 65 -15.1 4.8 0 0
03:17 1016 30 845 24.95 -9.7 14.6 64 -15.3 4.5 0 0
03:18 1016 30 845 24.95 -9.9 14.1 64 -15.4 4.2 0 0
03:19 1016 30 845 24.95 -10.2 13.6 65 -15.5 4 0 0
03:20 1016 30 845 24.95 -10.5 13.2 67 -15.4 4.2 0 0
03:21 1016 30 845 24.95 -10.6 13 67 -15.6 4 0 0
03:22 1016 30 845 24.95 -10.6 13 67 -15.5 4 0 0
03:23 1016 30 845 24.95 -10.5 13 68 -15.3 4.5 0 0
03:24 1016 30 845 24.95 -10.4 13.4 67 -15.4 4.3 0 0
03:25 1016 30 845 24.95 -10.3 13.5 67 -15.4 4.4 0 0
03:26 1016 30 845 24.95 -10.4 13.4 67 -15.3 4.4 0 0
03:27 1016 30 845 24.95 -10.1 13.8 68 -14.9 5.1 0 0
03:28 1016 30 845 24.95 -9.6 14.8 65 -15 4.9 0 0
03:29 1016 30 845 24.95 -9.6 14.8 64 -15.1 4.8 0 0
03:30 1016 30 845 24.95 -9.8 14.4 66 -14.9 5.2 0 0
03:31 1016 30 845 24.95 -9.9 14.2 68 -14.7 5.6 0 0
03:32 1016 30 845 24.95 -9.5 14.8 66 -14.8 5.4 0 0
03:33 1016 30 845 24.95 -9.3 15.2 64 -15 5 0 0
03:34 1016 30 845 24.95 -9.3 15.2 64 -14.9 5.2 0 0
03:35 1016 30 845 24.95 -9.3 15.3 64 -14.8 5.3 0 0
03:36 1016 30 845 24.95 -9.1 15.7 64 -14.8 5.4 0 0
03:37 1016 30 845 24.95 -9 15.8 64 -14.7 5.6 0 0
03:38 1016 30 845 24.95 -8.9 15.9 63 -14.8 5.3 0 0
03:39 1016 30 845 24.95 -9.2 15.4 63 -15 5 0 0
03:40 1016 30 845 24.95 -9.6 14.7 64 -15.2 4.7 0 0
03:41 1016 30 845 24.95 -9.7 14.5 67 -14.8 5.4 0 0
03:42 1016 30 845 24.95 -9.4 15.1 66 -14.6 5.7 0 0
03:43 1016 30 845 24.95 -9.1 15.7 66 -14.3 6.2 0 0
03:44 1016 30 845 24.95 -8.6 16.5 63 -14.4 6.1 0 0
03:45 1016 30 845 24.95 -8.5 16.7 63 -14.3 6.2 0 0
03:46 1016 30 845 24.95 -8.4 16.8 63 -14.3 6.2 0 0
10:36 1015 29.97 844 24.92 0.1 32.1 40 -12 10.4 0 0
10:37 1015 29.97 844 24.92 0.1 32.2 39 -12.2 10.1 0 0
10:38 1015 29.97 844 24.92 0.2 32.4 39 -12.3 9.9 0 0
10:39 1015 29.97 844 24.92 0.4 32.8 38 -12.3 9.9 0 0
10:40 1015 29.97 844 24.92 0.6 33.1 39 -12 10.5 0 0
10:41 1015 29.97 844 24.92 0.8 33.5 36 -12.5 9.6 0 0
10:42 1015 29.97 844 24.92 1.1 34 35 -12.6 9.4 0 0
10:43 1015 29.97 844 24.92 1.3 34.4 34 -13 8.6 0 0
10:44 1015 29.97 844 24.92 1.4 34.6 36 -12.1 10.1 0 0
10:45 1015 29.97 844 24.92 1.3 34.4 37 -11.8 10.7 0 0
10:46 1015 29.97 844 24.92 1.2 34.1 38 -11.7 10.9 0 0
10:47 1015 29.97 844 24.92 1.2 34.1 38 -11.5 11.2 0 0
10:48 1015 29.97 844 24.92 1.2 34.2 38 -11.5 11.4 0 0
10:49 1014 29.94 844 24.92 1.1 34 38 -11.6 11.1 0 0
10:50 1014 29.94 844 24.92 1.3 34.3 38 -11.4 11.5 0 0
10:51 1014 29.94 844 24.92 1.2 34.2 38 -11.6 11.1 0 0
10:52 1014 29.94 844 24.92 1.2 34.2 38 -11.6 11.1 0 0
10:53 1014 29.94 844 24.92 1.2 34.2 38 -11.5 11.3 0 0
10:54 1014 29.94 844 24.92 1.2 34.2 37 -11.9 10.7 0 0
10:55 1014 29.94 844 24.92 1.4 34.6 37 -11.7 10.9 0 0
10:56 1014 29.94 844 24.92 1.4 34.6 38 -11.4 11.5 0 0
10:57 1014 29.94 844 24.92 1.4 34.5 39 -11 12.2 0 0
10:58 1014 29.94 844 24.92 1.4 34.5 38 -11.4 11.4 0 0
10:59 1014 29.94 844 24.92 1.5 34.7 38 -11.5 11.3 0 0
11:00 1014 29.94 844 24.92 1.6 34.9 38 -11.1 11.9 0 0
11:01 1014 29.94 844 24.92 1.6 34.9 39 -10.9 12.4 0 0
11:02 1014 29.94 844 24.92 1.8 35.2 35 -12.3 9.9 0 0
11:03 1014 29.94 844 24.92 2 35.6 36 -11.5 11.3 0 0
11:04 1014 29.94 844 24.92 2.1 35.7 38 -10.8 12.5 0 0
11:05 1014 29.94 844 24.92 2.1 35.9 39 -10.5 13.1 0 0
11:06 1014 29.94 844 24.92 2.3 36.1 33 -12.4 9.6 0 0
11:07 1014 29.94 844 24.92 2.7 36.8 32 -12.6 9.3 0 0
11:08 1014 29.94 844 24.92 2.9 37.3 33 -11.9 10.5 0 0
11:09 1014 29.94 844 24.92 3.1 37.6 33 -11.8 10.7 0 0
11:10 1014 29.94 844 24.92 3.3 37.9 32 -12.1 10.2 0 0
11:11 1014 29.94 844 24.92 3.4 38.1 31 -12.2 10.1 0 0
11:12 1014 29.94 844 24.92 3.5 38.3 31 -12 10.3 0 0
11:13 1014 29.94 844 24.92 3.6 38.4 32 -11.5 11.3 0 0
11:14 1014 29.94 844 24.92 3.6 38.4 32 -11.8 10.7 0 0
11:15 1014 29.94 844 24.92 3.5 38.4 31 -12.1 10.3 0 0
11:16 1014 29.94 844 24.92 3.6 38.4 31 -12 10.4 0 0
11:17 1014 29.94 844 24.92 3.5 38.2 35 -10.5 13.1 0 0
11:18 1014 29.94 844 24.92 3.2 37.8 33 -11.5 11.3 0 0
11:19 1014 29.94 844 24.92 3.1 37.5 39 -9.7 14.5 0 0
11:20 1014 29.94 844 24.92 2.4 36.3 42 -9.1 15.6 0 0
11:21 1014 29.94 843 24.89 1.2 34.1 46 -9.2 15.5 0 0
11:22 1014 29.94 843 24.89 -0 31.9 50 -9.2 15.5 0 0
11:23 1014 29.94 843 24.89 -0.8 30.6 53 -9.3 15.3 0 0
11:24 1014 29.94 843 24.89 -1 30.1 53 -9.5 14.9 0 0
11:25 1014 29.94 843 24.89 -1.1 30 54 -9.3 15.3 0 0
11:26 1014 29.94 843 24.89 -1.1 30.1 56 -8.9 16 0 0
11:27 1014 29.94 843 24.89 -1.1 30 56 -8.8 16.2 0 0
11:28 1014 29.94 843 24.89 -1.5 29.3 56 -9.2 15.4 0 0
11:29 1014 29.94 843 24.89 -2 28.5 56 -9.6 14.7 0 0
11:30 1014 29.94 843 24.89 -2.2 28 58 -9.5 14.9 0 0
11:31 1014 29.94 843 24.89 -2.5 27.6 58 -9.6 14.7 0 0
11:32 1014 29.94 843 24.89 -2.5 27.4 60 -9.3 15.2 0 0
11:33 1014 29.94 843 24.89 -2.5 27.4 59 -9.5 14.8 0 0
11:34 1014 29.94 843 24.89 -2.5 27.5 58 -9.7 14.5 0 0
11:35 1014 29.94 843 24.89 -2.5 27.5 59 -9.4 15 0 0
11:36 1014 29.94 843 24.89 -2.5 27.6 58 -9.7 14.5 0 0
11:37 1014 29.94 843 24.89 -2.4 27.6 52 -11 12.2 0 0
11:38 1014 29.94 843 24.89 -2.2 28.1 51 -11 12.2 0 0
11:39 1014 29.94 843 24.89 -1.9 28.5 55 -9.8 14.3 0 0
11:40 1014 29.94 843 24.89 -2.1 28.3 56 -9.7 14.5 0 0
11:41 1014 29.94 843 24.89 -2.3 27.9 60 -9.1 15.6 0 0
11:42 1014 29.94 843 24.89 -2.5 27.6 58 -9.5 14.8 0 0
11:43 1014 29.94 843 24.89 -2.6 27.4 57 -9.9 14.2 0 0
11:44 1014 29.94 843 24.89 -2.5 27.4 59 -9.5 14.9 0 0
11:45 1014 29.94 843 24.89 -2.5 27.4 59 -9.5 14.9 0 0
11:46 1014 29.94 843 24.89 -2.5 27.4 59 -9.5 15 0 0
11:47 1014 29.94 843 24.89 -2.5 27.5 60 -9.3 15.3 0 0
11:48 1014 29.94 843 24.89 -2.4 27.7 61 -8.9 16 0 0
11:49 1014 29.94 843 24.89 -2.3 27.8 60 -9.1 15.6 0 0
11:50 1014 29.94 843 24.89 -2.5 27.5 58 -9.6 14.8 0 0
11:51 1014 29.94 843 24.89 -2.5 27.5 57 -9.9 14.2 0 0
11:52 1014 29.94 843 24.89 -2.5 27.5 56 -10.1 13.7 0 0
11:53 1014 29.94 843 24.89 -2.4 27.8 55 -10.2 13.7 0 0
11:54 1014 29.94 843 24.89 -2.2 28 54 -10.3 13.4 0 0
11:55 1014 29.94 843 24.89 -2.3 27.9 53 -10.5 13.1 0 0
11:56 1014 29.94 843 24.89 -2.4 27.8 55 -10.3 13.4 0 0
11:57 1014 29.94 843 24.89 -2.4 27.6 57 -9.9 14.2 0 0
11:58 1014 29.94 843 24.89 -2.5 27.5 57 -9.9 14.2 0 0
11:59 1014 29.94 843 24.89 -2.6 27.2 55 -10.5 13.1 0 0
12:00 1013 29.91 843 24.89 -2.8 27 53 -11.1 12.1 0 0
12:01 1013 29.91 843 24.89 -2.8 26.9 55 -10.7 12.8 0 0
12:02 1013 29.91 843 24.89 -2.9 26.8 58 -10 14 0 0
12:03 1013 29.91 843 24.89 -3 26.6 53 -11.3 11.7 0 0
12:04 1013 29.91 843 24.89 -2.9 26.7 54 -11 12.3 0 0
12:05 1013 29.91 843 24.89 -2.9 26.8 54 -10.9 12.3 0 0
12:06 1013 29.91 843 24.89 -2.8 26.9 54 -11 12.3 0 0
12:07 1013 29.91 843 24.89 -2.6 27.3 54 -10.7 12.7 0 0
12:08 1013 29.91 843 24.89 -2.5 27.6 52 -10.9 12.3 0 0
12:09 1013 29.91 843 24.89 -2.3 27.9 50 -11.3 11.6 0 0
12:10 1013 29.91 842 24.86 -2.2 28 51 -11 12.3 0 0
12:11 1013 29.91 842 24.86 -2.2 28.1 52 -10.7 12.8 0 0
12:12 1013 29.91 842 24.86 -2.2 28 52 -10.9 12.4 0 0
12:13 1013 29.91 843 24.89 -2.2 28.1 51 -10.9 12.3 0 0
12:14 1013 29.91 843 24.89 -2 28.5 50 -10.9 12.3 0 0
12:15 1013 29.91 843 24.89 -1.6 29.1 50 -10.8 12.6 0 0
12:16 1013 29.91 842 24.86 -1.4 29.5 45 -11.8 10.8 0 0
12:17 1013 29.91 842 24.86 -1.5 29.3 50 -10.6 12.9 0 0
12:18 1013 29.91 843 24.89 -1.6 29 49 -11 12.1 0 0
12:19 1013 29.91 843 24.89 -1.6 29.1 54 -9.7 14.6 0 0
12:20 1013 29.91 843 24.89 -1.6 29.1 54 -9.9 14.2 0 0
12:21 1013 29.91 843 24.89 -1.7 28.9 54 -9.7 14.5 0 0
12:22 1013 29.91 843 24.89 -1.7 28.9 56 -9.4 15.1 0 0
12:23 1013 29.91 842 24.86 -1.7 29 56 -9.3 15.2 0 0
12:24 1013 29.91 842 24.86 -1.8 28.7 53 -10.2 13.6 0 0
12:25 1013 29.91 842 24.86 -2 28.4 56 -9.6 14.8 0 0
12:26 1013 29.91 842 24.86 -2.2 28.1 52 -10.8 12.5 0 0
12:27 1013 29.91 842 24.86 -2.2 28 52 -10.8 12.5 0 0
12:28 1013 29.91 842 24.86 -2.2 28 54 -10.3 13.5 0 0
12:29 1013 29.91 842 24.86 -2.2 28 55 -10 14 0 0
12:30 1013 29.91 842 24.86 -2.3 27.9 59 -9.2 15.4 0 0
12:31 1013 29.91 842 24.86 -2.4 27.6 58 -9.6 14.8 0 0
12:32 1013 29.91 842 24.86 -2.5 27.4 57 -9.9 14.1 0 0
12:33 1013 29.91 842 24.86 -2.5 27.4 60 -9.3 15.2 0 0
12:34 1013 29.91 842 24.86 -2.7 27.2 59 -9.7 14.6 0 0
12:35 1013 29.91 842 24.86 -2.8 26.9 60 -9.5 14.9 0 0
12:36 1013 29.91 842 24.86 -2.9 26.8 63 -9 15.7 0 0
12:37 1013 29.91 842 24.86 -3 26.5 64 -8.9 16 0 0
12:38 1013 29.91 842 24.86 -3.1 26.4 62 -9.5 15 0 0
12:39 1013 29.91 842 24.86 -3.2 26.3 62 -9.4 15 0 0
12:40 1013 29.91 842 24.86 -3.2 26.2 61 -9.7 14.6 0 0
12:41 1013 29.91 842 24.86 -3.4 25.9 60 -10 13.9 0 0
12:42 1013 29.91 842 24.86 -3.4 25.8 62 -9.8 14.4 0 0
12:43 1013 29.91 842 24.86 -3.5 25.8 64 -9.4 15.1 0 0
12:44 1013 29.91 842 24.86 -3.4 25.8 63 -9.6 14.8 0 0
12:45 1013 29.91 842 24.86 -3.2 26.3 61 -9.8 14.4 0 0
12:46 1013 29.91 842 24.86 -3 26.7 59 -9.8 14.3 0 0
12:47 1013 29.91 842 24.86 -2.7 27.1 59 -9.7 14.6 0 0
12:48 1013 29.91 842 24.86 -2.6 27.2 59 -9.6 14.8 0 0
12:49 1013 29.91 842 24.86 -2.7 27.2 61 -9.1 15.6 0 0
12:50 1013 29.91 842 24.86 -2.7 27.1 59 -9.6 14.7 0 0
12:51 1013 29.91 842 24.86 -2.9 26.9 59 -9.8 14.4 0 0
12:52 1013 29.91 842 24.86 -2.9 26.9 59 -9.7 14.5 0 0
12:53 1013 29.91 842 24.86 -3 26.7 60 -9.7 14.5 0 0
12:54 1013 29.91 842 24.86 -3 26.6 58 -10 13.9 0 0
12:55 1013 29.91 842 24.86 -2.9 26.7 57 -10.3 13.5 0 0
12:56 1013 29.91 842 24.86 -2.8 27 57 -10.2 13.7 0 0
12:57 1013 29.91 842 24.86 -2.6 27.3 57 -9.9 14.2 0 0
12:58 1013 29.91 842 24.86 -2.6 27.3 59 -9.6 14.7 0 0
12:59 1013 29.91 842 24.86 -2.8 27 59 -9.7 14.6 0 0
13:00 1013 29.91 842 24.86 -2.9 26.9 57 -10.3 13.5 0 0
13:01 1013 29.91 842 24.86 -2.7 27.1 54 -10.8 12.5 0 0
13:02 1013 29.91 842 24.86 -2.7 27.1 58 -9.9 14.2 0 0
13:03 1013 29.91 842 24.86 -2.8 27 59 -9.6 14.7 0 0
13:04 1013 29.91 842 24.86 -3 26.7 60 -9.7 14.6 0 0
13:05 1013 29.91 842 24.86 -3.1 26.5 60 -9.8 14.3 0 0
13:06 1013 29.91 842 24.86 -3.1 26.4 59 -10.1 13.9 0 0
13:07 1013 29.91 842 24.86 -3.2 26.3 58 -10.3 13.5 0 0
13:08 1013 29.91 842 24.86 -3.1 26.5 59 -10.1 13.9 0 0
13:09 1013 29.91 842 24.86 -2.9 26.8 57 -10.2 13.6 0 0
13:10 1012 29.88 842 24.86 -2.8 27 55 -10.5 13 0 0
13:11 1012 29.88 842 24.86 -2.8 27 55 -10.6 12.9 0 0
13:12 1013 29.91 842 24.86 -2.8 27 54 -10.8 12.5 0 0
13:13 1013 29.91 842 24.86 -2.8 27 58 -9.9 14.2 0 0
13:14 1013 29.91 842 24.86 -2.9 26.7 61 -9.5 14.8 0 0
13:15 1013 29.91 842 24.86 -3.3 26.1 56 -10.8 12.5 0 0
13:16 1013 29.91 842 24.86 -3.4 25.9 54 -11.4 11.5 0 0
13:17 1012 29.88 842 24.86 -3.3 26.1 55 -11 12.2 0 0
13:18 1012 29.88 842 24.86 -3.2 26.2 53 -11.5 11.3 0 0
13:19 1012 29.88 842 24.86 -3.2 26.2 55 -11 12.3 0 0
13:20 1012 29.88 842 24.86 -3.2 26.2 55 -11 12.2 0 0
13:21 1013 29.91 842 24.86 -3.2 26.2 58 -10.3 13.4 0 0
13:22 1013 29.91 842 24.86 -3.5 25.7 60 -10.1 13.8 0 0
13:23 1013 29.91 842 24.86 -3.7 25.3 57 -11 12.1 0 0
13:24 1013 29.91 842 24.86 -3.6 25.5 58 -10.8 12.6 0 0
13:25 1012 29.88 842 24.86 -3.5 25.6 54 -11.5 11.2 0 0
13:26 1012 29.88 842 24.86 -3.4 26 52 -11.8 10.8 0 0
13:27 1012 29.88 842 24.86 -3.1 26.4 51 -11.9 10.6 0 0
13:28 1012 29.88 842 24.86 -2.9 26.8 50 -11.9 10.6 0 0
13:29 1012 29.88 842 24.86 -2.7 27.1 49 -12.1 10.2 0 0
13:30 1012 29.88 842 24.86 -2.6 27.4 48 -12 10.3 0 0
13:31 1012 29.88 842 24.86 -2.4 27.7 49 -11.8 10.7 0 0
13:32 1012 29.88 842 24.86 -2.2 28 48 -11.8 10.8 0 0
13:33 1012 29.88 841 24.83 -2.2 28 50 -11.2 11.8 0 0
13:34 1012 29.88 841 24.83 -2.4 27.7 50 -11.5 11.3 0 0
13:35 1012 29.88 841 24.83 -2.4 27.6 51 -11.2 11.8 0 0
13:36 1012 29.88 841 24.83 -2.4 27.6 51 -11.2 11.8 0 0
13:37 1012 29.88 841 24.83 -2.4 27.7 52 -11 12.2 0 0
13:38 1012 29.88 841 24.83 -2.5 27.6 53 -10.7 12.7 0 0
13:39 1012 29.88 841 24.83 -2.5 27.4 50 -11.7 10.9 0 0
13:40 1012 29.88 841 24.83 -2.5 27.4 47 -12.2 10 0 0
13:41 1012 29.88 841 24.83 -2.5 27.6 47 -12.3 9.8 0 0
13:42 1012 29.88 841 24.83 -2.4 27.7 46 -12.5 9.6 0 0
13:43 1012 29.88 841 24.83 -2.3 27.9 50 -11.4 11.5 0 0
13:44 1012 29.88 841 24.83 -2.2 28.1 55 -10 14 0 0
13:45 1012 29.88 841 24.83 -2.4 27.8 50 -11.4 11.6 0 0
13:46 1012 29.88 841 24.83 -2.5 27.5 52 -11.1 12 0 0
13:47 1012 29.88 841 24.83 -2.5 27.5 47 -12.4 9.7 0 0
13:48 1012 29.88 841 24.83 -2.4 27.7 47 -12.2 10.1 0 0
13:49 1012 29.88 841 24.83 -2.3 27.9 47 -12 10.4 0 0
13:50 1012 29.88 841 24.83 -2.2 28 49 -11.6 11.1 0 0
13:51 1012 29.88 841 24.83 -2.2 28.1 50 -11.3 11.6 0 0
13:52 1012 29.88 841 24.83 -2.2 28 52 -10.8 12.6 0 0
13:53 1012 29.88 841 24.83 -2.3 27.8 54 -10.5 13.2 0 0
13:54 1012 29.88 841 24.83 -2.5 27.6 51 -11.4 11.6 0 0
13:55 1012 29.88 841 24.83 -2.5 27.6 53 -10.9 12.4 0 0
13:56 1012 29.88 841 24.83 -2.4 27.6 56 -10.2 13.7 0 0
13:57 1012 29.88 841 24.83 -2.6 27.3 57 -10 14.1 0 0
13:58 1012 29.88 841 24.83 -2.9 26.8 59 -9.9 14.1 0 0
13:59 1012 29.88 841 24.83 -3.1 26.5 61 -9.7 14.6 0 0
14:00 1012 29.88 841 24.83 -3.3 26.1 57 -10.7 12.8 0 0
14:01 1012 29.88 841 24.83 -3.2 26.3 55 -10.9 12.4 0 0
14:02 1012 29.88 841 24.83 -3 26.5 54 -11.1 12 0 0
14:03 1012 29.88 841 24.83 -2.9 26.9 54 -10.8 12.5 0 0
14:04 1012 29.88 841 24.83 -2.8 27 59 -9.8 14.4 0 0
14:05 1012 29.88 841 24.83 -2.8 27 58 -9.9 14.2 0 0
14:06 1012 29.88 841 24.83 -2.8 27 53 -11 12.2 0 0
14:07 1012 29.88 841 24.83 -2.7 27.2 53 -11 12.1 0 0
14:08 1012 29.88 841 24.83 -2.6 27.4 49 -11.9 10.6 0 0
14:09 1012 29.88 841 24.83 -2.4 27.7 51 -11.3 11.7 0 0
14:10 1012 29.88 841 24.83 -2.2 28.1 56 -9.8 14.3 0 0
14:11 1012 29.88 841 24.83 -2.1 28.2 58 -9.3 15.2 0 0
14:12 1012 29.88 841 24.83 -2.4 27.7 62 -8.7 16.3 0 0
14:13 1012 29.88 841 24.83 -2.7 27.1 60 -9.5 14.9 0 0
14:14 1012 29.88 841 24.83 -2.8 26.9 55 -10.6 12.9 0 0
14:15 1012 29.88 841 24.83 -2.8 27 54 -10.8 12.5 0 0
14:16 1012 29.88 841 24.83 -2.6 27.3 53 -11 12.2 0 0
14:17 1012 29.88 841 24.83 -2.5 27.5 54 -10.7 12.7 0 0
14:18 1012 29.88 841 24.83 -2.4 27.6 53 -10.8 12.6 0 0
14:19 1012 29.88 841 24.83 -2.4 27.7 54 -10.6 13 0 0
14:20 1012 29.88 841 24.83 -2.4 27.7 54 -10.5 13 0 0
14:21 1012 29.88 841 24.83 -2.3 27.9 52 -10.7 12.7 0 0
14:22 1012 29.88 841 24.83 -2.2 28.1 58 -9.4 15.1 0 0
14:23 1012 29.88 841 24.83 -2.2 28 56 -9.8 14.4 0 0
14:24 1012 29.88 841 24.83 -2.3 27.8 57 -9.7 14.6 0 0
14:25 1012 29.88 841 24.83 -2.4 27.8 50 -11.5 11.2 0 0
14:26 1012 29.88 841 24.83 -2.2 28 53 -10.5 13.1 0 0
14:27 1012 29.88 841 24.83 -2.2 28.1 49 -11.5 11.2 0 0
14:28 1012 29.88 841 24.83 -2.1 28.1 53 -10.4 13.2 0 0
14:29 1012 29.88 841 24.83 -2.1 28.2 59 -9.1 15.7 0 0
14:30 1012 29.88 841 24.83 -2.3 27.9 59 -9.2 15.4 0 0
14:31 1012 29.88 841 24.83 -2.5 27.6 61 -9 15.8 0 0
14:32 1012 29.88 841 24.83 -2.6 27.3 62 -8.9 16 0 0
14:33 1012 29.88 841 24.83 -2.6 27.3 62 -9 15.7 0 0
14:34 1012 29.88 841 24.83 -2.6 27.4 64 -8.5 16.7 0 0
14:35 1012 29.88 841 24.83 -2.6 27.3 63 -8.8 16.2 0 0
14:36 1012 29.88 841 24.83 -2.7 27.1 61 -9.3 15.2 0 0
14:37 1012 29.88 841 24.83 -2.8 26.9 58 -10 14 0 0
14:38 1012 29.88 841 24.83 -2.7 27.1 54 -10.8 12.6 0 0
14:39 1012 29.88 841 24.83 -2.4 27.7 48 -12 10.4 0 0
14:40 1012 29.88 841 24.83 -2.1 28.3 48 -11.7 10.9 0 0
14:41 1012 29.88 841 24.83 -1.8 28.8 46 -11.9 10.5 0 0
14:42 1012 29.88 841 24.83 -1.7 29 49 -11 12.2 0 0
14:43 1012 29.88 841 24.83 -1.7 28.9 49 -11 12.2 0 0
14:44 1012 29.88 841 24.83 -1.8 28.7 49 -11.1 11.9 0 0
14:45 1012 29.88 841 24.83 -1.8 28.7 50 -10.9 12.3 0 0
14:46 1012 29.88 841 24.83 -1.9 28.6 53 -10.4 13.3 0 0
14:47 1012 29.88 841 24.83 -2 28.5 52 -10.5 13.1 0 0
14:48 1012 29.88 841 24.83 -2 28.4 53 -10.4 13.3 0 0
14:49 1012 29.88 841 24.83 -1.9 28.6 52 -10.5 13.2 0 0
14:50 1012 29.88 841 24.83 -1.9 28.6 53 -10.3 13.4 0 0
14:51 1012 29.88 841 24.83 -1.9 28.5 52 -10.4 13.2 0 0
14:52 1012 29.88 841 24.83 -2 28.5 53 -10.3 13.5 0 0
14:53 1012 29.88 841 24.83 -2 28.4 54 -10.1 13.8 0 0
14:54 1012 29.88 841 24.83 -2 28.5 55 -9.7 14.5 0 0
14:55 1012 29.88 841 24.83 -2 28.5 55 -9.8 14.3 0 0
14:56 1012 29.88 841 24.83 -2 28.4 58 -9.3 15.2 0 0
14:57 1012 29.88 841 24.83 -2.2 28 58 -9.4 15.1 0 0
14:58 1012 29.88 841 24.83 -2.4 27.7 53 -10.6 12.9 0 0
14:59 1012 29.88 841 24.83 -2.2 28 50 -11.3 11.6 0 0
15:00 1012 29.88 841 24.83 -2 28.4 55 -9.8 14.4 0 0
15:01 1012 29.88 841 24.83 -1.9 28.5 51 -10.9 12.4 0 0
15:02 1012 29.88 841 24.83 -1.9 28.5 49 -11.3 11.7 0 0
15:03 1012 29.88 841 24.83 -1.8 28.8 45 -12.1 10.2 0 0
15:04 1012 29.88 841 24.83 -1.5 29.2 48 -11.1 12 0 0
15:05 1012 29.88 841 24.83 -1.5 29.3 54 -9.7 14.5 0 0
15:06 1012 29.88 841 24.83 -1.7 28.9 58 -9 15.8 0 0
15:07 1012 29.88 841 24.83 -2.2 28 59 -9.2 15.5 0 0
15:08 1012 29.88 841 24.83 -2.6 27.3 59 -9.5 14.8 0 0
15:09 1012 29.88 841 24.83 -2.8 27 58 -9.9 14.1 0 0
15:10 1012 29.88 841 24.83 -2.7 27.1 57 -10.2 13.7 0 0
15:11 1012 29.88 841 24.83 -2.5 27.4 53 -10.7 12.7 0 0
15:12 1012 29.88 841 24.83 -2.3 27.8 51 -11.2 11.8 0 0
15:13 1012 29.88 841 24.83 -2.1 28.2 52 -10.8 12.6 0 0
15:14 1012 29.88 841 24.83 -2 28.4 54 -10 13.9 0 0
15:15 1012 29.88 841 24.83 -2 28.3 52 -10.6 12.9 0 0
15:16 1012 29.88 841 24.83 -2.1 28.2 54 -10.3 13.5 0 0
15:17 1012 29.88 841 24.83 -2.2 28 57 -9.6 14.7 0 0
15:18 1012 29.88 841 24.83 -2.5 27.6 59 -9.3 15.2 0 0
15:19 1012 29.88 841 24.83 -2.7 27.1 61 -9.3 15.3 0 0
15:20 1012 29.88 841 24.83 -3 26.7 62 -9.3 15.3 0 0
15:21 1012 29.88 841 24.83 -3.3 26.1 63 -9.4 15.1 0 0
15:22 1012 29.88 841 24.83 -3.5 25.7 62 -9.8 14.4 0 0
15:23 1012 29.88 841 24.83 -3.6 25.6 62 -9.8 14.4 0 0
15:24 1012 29.88 841 24.83 -3.5 25.7 60 -10.3 13.5 0 0
15:25 1012 29.88 841 24.83 -3.4 25.9 58 -10.5 13.1 0 0
15:26 1012 29.88 841 24.83 -3.2 26.3 57 -10.6 12.9 0 0
15:27 1012 29.88 841 24.83 -2.9 26.9 55 -10.8 12.6 0 0
15:28 1012 29.88 841 24.83 -2.5 27.5 53 -10.8 12.6 0 0
15:29 1012 29.88 841 24.83 -2.3 27.9 53 -10.6 13 0 0
15:30 1012 29.88 841 24.83 -2.2 28 54 -10.4 13.2 0 0
15:31 1012 29.88 841 24.83 -2.3 27.9 54 -10.3 13.5 0 0
15:32 1012 29.88 841 24.83 -2.4 27.6 56 -10.1 13.8 0 0
15:33 1012 29.88 841 24.83 -2.5 27.6 55 -10.4 13.4 0 0
15:34 1012 29.88 841 24.83 -2.4 27.6 55 -10.3 13.5 0 0
15:35 1012 29.88 841 24.83 -2.4 27.6 53 -10.7 12.8 0 0
15:36 1012 29.88 841 24.83 -2.3 27.9 54 -10.4 13.3 0 0
15:37 1012 29.88 841 24.83 -2.3 27.9 56 -10 14 0 0
15:38 1012 29.88 841 24.83 -2.6 27.3 56 -10.1 13.7 0 0
15:39 1012 29.88 841 24.83 -2.9 26.7 58 -10.1 13.8 0 0
15:40 1012 29.88 841 24.83 -3.3 26.1 59 -10.2 13.7 0 0
15:41 1012 29.88 841 24.83 -3.3 26.1 59 -10.2 13.6 0 0
15:42 1011 29.85 841 24.83 -3.3 26.1 60 -10 14.1 0 0
15:43 1011 29.85 841 24.83 -3.5 25.8 61 -10 14 0 0
15:44 1011 29.85 841 24.83 -3.6 25.6 61 -10.1 13.8 0 0
15:45 1011 29.85 841 24.83 -3.5 25.7 59 -10.4 13.4 0 0
15:46 1011 29.85 841 24.83 -3.2 26.2 58 -10.2 13.6 0 0
15:47 1011 29.85 841 24.83 -3.1 26.4 59 -10 14 0 0
15:48 1011 29.85 840 24.81 -3.2 26.3 55 -11 12.1 0 0
15:49 1011 29.85 840 24.81 -2.5 27.4 49 -11.9 10.6 0 0
15:50 1011 29.85 840 24.81 -2 28.3 51 -10.8 12.6 0 0
15:51 1011 29.85 840 24.81 -2.2 28.1 54 -10.2 13.7 0 0
15:52 1011 29.85 840 24.81 -2.5 27.5 55 -10.3 13.5 0 0
15:53 1011 29.85 840 24.81 -2.7 27.1 56 -10.3 13.5 0 0
15:54 1011 29.85 840 24.81 -2.9 26.8 57 -10.3 13.4 0 0
15:55 1011 29.85 840 24.81 -3 26.5 58 -10.3 13.5 0 0
15:56 1011 29.85 840 24.81 -3.1 26.3 58 -10.3 13.5 0 0
15:57 1011 29.85 840 24.81 -3.2 26.2 58 -10.3 13.5 0 0
15:58 1011 29.85 840 24.81 -3.2 26.2 58 -10.5 13.2 0 0
15:59 1011 29.85 840 24.81 -3.2 26.3 57 -10.5 13 0 0
16:00 1011 29.85 840 24.81 -3 26.6 56 -10.6 12.9 0 0
16:01 1011 29.85 840 24.81 -2.9 26.8 55 -10.6 12.9 0 0
16:02 1011 29.85 840 24.81 -2.8 27 56 -10.5 13.2 0 0
16:03 1011 29.85 840 24.81 -3 26.6 59 -10 14 0 0
16:04 1011 29.85 840 24.81 -3.3 26.1 59 -10.2 13.7 0 0
16:05 1011 29.85 840 24.81 -3.4 25.9 59 -10.3 13.4 0 0
16:06 1011 29.85 840 24.81 -3.3 26 58 -10.4 13.2 0 0
16:07 1011 29.85 840 24.81 -3.3 26.1 55 -11 12.2 0 0
16:08 1011 29.85 840 24.81 -3 26.7 55 -10.7 12.7 0 0
16:09 1011 29.85 840 24.81 -2.9 26.9 58 -10 14.1 0 0
16:10 1011 29.85 840 24.81 -3.1 26.3 60 -9.9 14.1 0 0
16:11 1011 29.85 840 24.81 -3.5 25.8 61 -9.9 14.2 0 0
16:12 1011 29.85 840 24.81 -3.7 25.4 61 -10.1 13.8 0 0
16:13 1011 29.85 840 24.81 -3.7 25.3 62 -10 13.9 0 0
16:14 1011 29.85 840 24.81 -3.6 25.5 59 -10.5 13.1 0 0
16:15 1011 29.85 840 24.81 -3.1 26.4 56 -10.6 12.9 0 0
16:16 1011 29.85 840 24.81 -2.7 27.1 57 -10.1 13.8 0 0
16:17 1011 29.85 840 24.81 -2.7 27.2 57 -10.2 13.7 0 0
16:18 1011 29.85 840 24.81 -2.6 27.3 57 -10.1 13.8 0 0
16:19 1011 29.85 840 24.81 -2.6 27.3 57 -9.9 14.1 0 0
16:20 1011 29.85 840 24.81 -2.6 27.4 57 -9.9 14.2 0 0
16:21 1011 29.85 840 24.81 -2.5 27.5 57 -9.9 14.2 0 0
16:22 1011 29.85 840 24.81 -2.5 27.5 58 -9.6 14.7 0 0
16:23 1011 29.85 840 24.81 -2.6 27.3 59 -9.4 15 0 0
16:24 1011 29.85 840 24.81 -2.6 27.2 56 -10.2 13.7 0 0
16:25 1010 29.83 840 24.81 -2.4 27.6 55 -10.4 13.3 0 0
16:26 1010 29.83 840 24.81 -2.1 28.2 52 -10.8 12.6 0 0
16:27 1010 29.83 840 24.81 -1.7 28.9 52 -10.3 13.5 0 0
16:28 1010 29.83 840 24.81 -1.5 29.3 52 -10.2 13.6 0 0
16:29 1010 29.83 840 24.81 -1.5 29.2 52 -10.2 13.7 0 0
16:30 1010 29.83 840 24.81 -1.5 29.4 50 -10.7 12.8 0 0
16:31 1010 29.83 840 24.81 -1.3 29.6 49 -10.7 12.7 0 0
16:32 1010 29.83 840 24.81 -1.2 29.9 46 -11.3 11.7 0 0
16:33 1010 29.83 840 24.81 -1 30.2 46 -11.2 11.9 0 0
16:34 1010 29.83 840 24.81 -0.9 30.4 48 -10.5 13.1 0 0
16:35 1010 29.83 840 24.81 -1 30.3 52 -9.7 14.6 0 0
16:36 1010 29.83 840 24.81 -1.4 29.5 51 -10.3 13.5 0 0
16:37 1010 29.83 840 24.81 -1.7 29 50 -10.7 12.7 0 0
16:38 1010 29.83 840 24.81 -1.7 29 50 -10.7 12.7 0 0
16:39 1010 29.83 840 24.81 -1.6 29.1 49 -11 12.3 0 0
16:40 1010 29.83 839 24.78 -1.5 29.3 49 -10.8 12.5 0 0
16:41 1010 29.83 840 24.81 -1.4 29.4 48 -11.2 11.9 0 0
16:42 1010 29.83 840 24.81 -1.3 29.7 45 -11.6 11.1 0 0
16:43 1010 29.83 839 24.78 -0.8 30.6 42 -12.1 10.2 0 0
16:44 1010 29.83 839 24.78 -0.2 31.7 40 -12.2 10.1 0 0
16:45 1010 29.83 839 24.78 0.1 32.3 39 -12.2 10 0 0
16:46 1010 29.83 839 24.78 0.2 32.4 40 -12 10.5 0 0
16:47 1010 29.83 839 24.78 0.2 32.3 39 -12.2 10 0 0
16:48 1010 29.83 839 24.78 0.3 32.5 39 -12 10.3 0 0
16:49 1010 29.83 839 24.78 0.3 32.5 41 -11.4 11.5 0 0
16:50 1010 29.83 839 24.78 -0.1 31.9 41 -11.8 10.8 0 0
16:51 1010 29.83 839 24.78 -0.3 31.5 41 -12.1 10.3 0 0
16:52 1010 29.83 839 24.78 -0.1 31.8 40 -12.1 10.3 0 0
16:53 1010 29.83 840 24.81 -0.2 31.6 40 -12.2 10.1 0 0
16:54 1010 29.83 839 24.78 -0.5 31.2 41 -12.3 9.8 0 0
16:55 1010 29.83 839 24.78 -0.3 31.4 40 -12.4 9.8 0 0
16:56 1010 29.83 840 24.81 -0.1 31.9 37 -13.2 8.2 0 0
16:57 1010 29.83 839 24.78 0.5 32.8 34 -13.7 7.3 0 0
16:58 1010 29.83 839 24.78 1.1 34 32 -13.8 7.2 0 0
16:59 1010 29.83 839 24.78 1.5 34.7 33 -13.2 8.2 0 0
17:00 1010 29.83 839 24.78 1.5 34.7 33 -13.1 8.4 0 0
17:01 1010 29.83 839 24.78 1.4 34.5 33 -13.3 8 0 0
17:02 1010 29.83 839 24.78 1.2 34.2 36 -12.3 9.9 0 0
17:03 1010 29.83 840 24.81 0.6 33.1 39 -12 10.4 0 0
17:04 1010 29.83 840 24.81 0.1 32.1 38 -12.5 9.4 0 0
17:05 1010 29.83 840 24.81 -0.1 31.8 37 -13 8.6 0 0
17:06 1010 29.83 840 24.81 -0.2 31.6 39 -12.6 9.3 0 0
17:07 1010 29.83 840 24.81 -0.4 31.3 36 -13.8 7.2 0 0
17:08 1010 29.83 840 24.81 -0.1 31.9 36 -13.3 8 0 0
17:09 1010 29.83 840 24.81 0.2 32.3 33 -14.2 6.5 0 0
17:10 1011 29.85 840 24.81 0.4 32.7 33 -14 6.8 0 0
17:11 1011 29.85 840 24.81 0.5 32.8 36 -13 8.6 0 0
17:12 1011 29.85 840 24.81 0.2 32.3 34 -13.9 6.9 0 0
17:13 1010 29.83 840 24.81 0.2 32.3 33 -14.2 6.4 0 0
17:14 1010 29.83 840 24.81 0.3 32.6 32 -14.5 5.9 0 0
17:15 1011 29.85 840 24.81 0.5 32.9 32 -14.2 6.4 0 0
17:16 1011 29.85 840 24.81 0.6 33.1 33 -13.7 7.3 0 0
17:17 1010 29.83 840 24.81 0.2 32.4 38 -12.6 9.4 0 0
17:18 1010 29.83 840 24.81 -0.3 31.5 37 -13.5 7.8 0 0
17:19 1010 29.83 840 24.81 -0.4 31.2 33 -15 5 0 0
17:20 1010 29.83 840 24.81 0.5 32.9 28 -15.8 3.5 0 0
17:21 1010 29.83 840 24.81 1.8 35.2 25 -16.1 2.9 0 0
17:22 1010 29.83 840 24.81 2.6 36.8 26 -15.2 4.6 0 0
17:23 1010 29.83 839 24.78 3 37.4 25 -15.3 4.4 0 0
17:24 1010 29.83 839 24.78 3.5 38.3 25 -14.9 5.2 0 0
17:25 1010 29.83 839 24.78 3.7 38.7 24 -15 5 0 0
17:26 1010 29.83 840 24.81 3.8 38.9 27 -13.4 7.8 0 0
17:27 1010 29.83 839 24.78 3.6 38.4 25 -14.7 5.6 0 0
17:28 1010 29.83 839 24.78 3.5 38.3 26 -14.4 6.1 0 0
17:29 1010 29.83 839 24.78 3.6 38.4 26 -14 6.8 0 0
17:30 1010 29.83 839 24.78 3.5 38.3 25 -14.5 5.8 0 0
17:31 1010 29.83 839 24.78 3.5 38.4 27 -13.7 7.4 0 0
17:32 1010 29.83 839 24.78 3.4 38.1 29 -12.9 8.7 0 0
17:33 1010 29.83 839 24.78 3.2 37.8 26 -14.6 5.7 0 0
17:34 1010 29.83 839 24.78 3.2 37.8 30 -12.8 9 0 0
17:35 1010 29.83 839 24.78 2.9 37.2 32 -12.4 9.7 0 0
17:36 1010 29.83 839 24.78 2.7 36.8 31 -12.9 8.8 0 0
17:37 1010 29.83 839 24.78 2.7 36.9 29 -13.6 7.6 0 0
17:38 1010 29.83 839 24.78 2.8 37.1 29 -13.4 7.9 0 0
17:39 1010 29.83 839 24.78 2.8 37.1 29 -13.6 7.6 0 0
17:40 1010 29.83 839 24.78 2.9 37.2 30 -13.3 8.1 0 0
17:41 1010 29.83 839 24.78 2.9 37.2 31 -12.9 8.9 0 0
17:42 1010 29.83 839 24.78 2.8 37 31 -12.8 8.9 0 0
17:43 1010 29.83 839 24.78 2.7 36.9 32 -12.5 9.6 0 0
17:44 1010 29.83 839 24.78 2.7 36.8 30 -13.1 8.4 0 0
17:45 1010 29.83 839 24.78 2.7 36.9 32 -12.5 9.5 0 0
17:46 1010 29.83 839 24.78 2.6 36.7 32 -12.6 9.3 0 0
17:47 1010 29.83 839 24.78 2.6 36.7 30 -13.1 8.4 0 0
17:48 1010 29.83 839 24.78 2.8 37 30 -13 8.6 0 0
17:49 1010 29.83 839 24.78 2.8 37 31 -12.8 9 0 0
17:50 1010 29.83 839 24.78 2.7 36.9 31 -12.7 9.1 0 0
17:51 1010 29.83 839 24.78 2.7 36.9 31 -12.7 9.1 0 0
17:52 1010 29.83 839 24.78 2.6 36.7 32 -12.6 9.3 0 0
17:53 1010 29.83 839 24.78 2.6 36.7 31 -12.7 9.1 0 0
17:54 1010 29.83 839 24.78 2.7 36.8 30 -13.1 8.5 0 0
17:55 1010 29.83 839 24.78 2.7 36.9 32 -12.4 9.6 0 0
17:56 1010 29.83 840 24.81 2.6 36.7 33 -12.1 10.3 0 0
17:57 1010 29.83 840 24.81 2.6 36.7 32 -12.6 9.2 0 0
17:58 1010 29.83 840 24.81 2.6 36.7 34 -11.8 10.8 0 0
17:59 1010 29.83 840 24.81 2.5 36.5 32 -12.7 9.2 0 0
18:00 1010 29.83 840 24.81 2.5 36.5 31 -12.9 8.8 0 0
18:01 1010 29.83 840 24.81 2.7 36.8 31 -12.8 8.9 0 0
18:02 1011 29.85 840 24.81 2.6 36.7 35 -11.4 11.4 0 0
18:03 1010 29.83 840 24.81 2.3 36.2 36 -11.2 11.9 0 0
18:04 1011 29.85 840 24.81 2 35.6 35 -12 10.5 0 0
18:05 1011 29.85 840 24.81 1.9 35.4 38 -11.1 12.1 0 0
18:06 1011 29.85 840 24.81 1.6 34.9 37 -11.6 11.1 0 0
18:07 1011 29.85 840 24.81 1.6 34.8 36 -12 10.4 0 0
18:08 1011 29.85 840 24.81 1.6 34.9 37 -11.7 10.9 0 0
18:09 1011 29.85 840 24.81 1.6 34.9 33 -12.9 8.8 0 0
18:10 1011 29.85 840 24.81 1.9 35.4 33 -12.9 8.8 0 0
18:11 1011 29.85 840 24.81 2.1 35.7 33 -12.7 9.2 0 0
18:12 1011 29.85 840 24.81 2.2 35.9 32 -12.8 9 0 0
18:13 1011 29.85 840 24.81 2.3 36.1 35 -11.5 11.2 0 0
18:14 1010 29.83 840 24.81 2.1 35.8 32 -13.1 8.4 0 0
18:15 1010 29.83 840 24.81 2.3 36.2 32 -12.7 9.1 0 0
18:16 1011 29.85 840 24.81 2.4 36.3 35 -11.6 11.1 0 0
18:17 1010 29.83 840 24.81 2.2 35.9 36 -11.6 11.2 0 0
18:18 1010 29.83 840 24.81 2 35.7 31 -13.5 7.8 0 0
18:19 1010 29.83 840 24.81 2.4 36.4 33 -12.1 10.1 0 0
18:20 1011 29.85 840 24.81 2.4 36.4 35 -11.4 11.4 0 0
18:21 1011 29.85 840 24.81 2.2 35.9 36 -11.3 11.6 0 0
18:22 1011 29.85 840 24.81 2 35.5 37 -11.2 11.8 0 0
18:23 1011 29.85 840 24.81 1.8 35.2 36 -11.8 10.8 0 0
18:24 1011 29.85 840 24.81 1.7 35.1 37 -11.3 11.6 0 0
18:25 1011 29.85 840 24.81 1.7 35.1 36 -11.8 10.8 0 0
18:26 1011 29.85 840 24.81 1.8 35.2 36 -11.7 11 0 0
18:27 1011 29.85 840 24.81 1.8 35.3 36 -11.8 10.7 0 0
18:28 1011 29.85 840 24.81 1.9 35.4 35 -12.1 10.3 0 0
18:29 1011 29.85 840 24.81 2 35.5 36 -11.6 11.1 0 0
18:30 1011 29.85 840 24.81 2 35.7 35 -11.8 10.7 0 0
18:31 1011 29.85 840 24.81 2.1 35.7 35 -11.8 10.7 0 0
18:32 1011 29.85 840 24.81 2.1 35.8 38 -10.9 12.3 0 0
18:33 1011 29.85 840 24.81 1.9 35.5 38 -10.9 12.4 0 0
18:34 1011 29.85 840 24.81 1.7 35.1 40 -10.5 13.2 0 0
18:35 1011 29.85 840 24.81 1.6 34.9 39 -10.9 12.4 0 0
18:36 1011 29.85 840 24.81 1.6 34.8 38 -11.1 11.9 0 0
18:37 1011 29.85 840 24.81 1.7 35 38 -11.3 11.6 0 0
18:38 1010 29.83 840 24.81 1.9 35.3 38 -11.1 12.1 0 0
18:39 1011 29.85 840 24.81 1.9 35.4 39 -10.8 12.6 0 0
18:40 1011 29.85 840 24.81 1.8 35.3 39 -10.6 12.9 0 0
18:41 1011 29.85 840 24.81 1.8 35.2 40 -10.6 12.9 0 0
18:42 1011 29.85 840 24.81 1.8 35.2 37 -11.4 11.5 0 0
18:43 1011 29.85 840 24.81 1.9 35.5 38 -11.1 12 0 0
18:44 1010 29.83 840 24.81 2.2 35.9 37 -11.1 12.1 0 0
18:45 1010 29.83 840 24.81 2.3 36.1 37 -11.1 12 0 0
18:46 1011 29.85 840 24.81 2.4 36.3 39 -10.4 13.3 0 0
18:47 1011 29.85 840 24.81 2.3 36.1 39 -10.2 13.7 0 0
18:48 1010 29.83 840 24.81 2.4 36.2 37 -11.1 12.1 0 0
18:49 1011 29.85 840 24.81 2.5 36.5 38 -10.4 13.3 0 0
18:50 1010 29.83 840 24.81 2.6 36.7 36 -11.1 12 0 0
18:51 1011 29.85 840 24.81 2.8 37 35 -11.1 12 0 0
18:52 1011 29.85 840 24.81 2.9 37.1 38 -10.1 13.8 0 0
18:53 1010 29.83 840 24.81 2.7 36.9 38 -10.3 13.4 0 0
18:54 1010 29.83 840 24.81 2.8 37 37 -10.6 13 0 0
18:55 1011 29.85 840 24.81 2.7 36.9 40 -9.6 14.7 0 0
18:56 1010 29.83 840 24.81 2.6 36.7 41 -9.5 14.9 0 0
18:57 1010 29.83 840 24.81 2.5 36.6 39 -10 14 0 0
18:58 1011 29.85 840 24.81 2.6 36.7 39 -9.9 14.2 0 0
18:59 1011 29.85 840 24.81 2.6 36.7 40 -9.6 14.8 0 0
19:00 1011 29.85 840 24.81 2.6 36.7 41 -9.5 14.9 0 0
19:01 1011 29.85 840 24.81 2.5 36.6 40 -9.7 14.5 0 0
19:02 1011 29.85 840 24.81 2.6 36.7 38 -10.4 13.3 0 0
19:03 1011 29.85 840 24.81 2.8 37 38 -10.3 13.5 0 0
19:04 1011 29.85 840 24.81 2.9 37.2 38 -10.1 13.9 0 0
19:05 1011 29.85 840 24.81 2.9 37.1 41 -9.1 15.6 0 0
19:06 1011 29.85 840 24.81 2.6 36.8 42 -8.9 15.9 0 0
19:07 1010 29.83 840 24.81 2.6 36.6 41 -9.3 15.3 0 0
19:08 1010 29.83 840 24.81 2.7 36.9 40 -9.5 14.9 0 0
19:09 1010 29.83 840 24.81 2.9 37.1 39 -9.8 14.4 0 0
19:10 1010 29.83 840 24.81 3.1 37.5 39 -9.7 14.5 0 0
19:11 1011 29.85 840 24.81 3.1 37.5 40 -9.1 15.5 0 0
19:12 1011 29.85 840 24.81 3.1 37.5 39 -9.5 15 0 0
19:13 1010 29.83 840 24.81 3.1 37.5 40 -9.4 15.1 0 0
19:14 1010 29.83 840 24.81 3.1 37.5 41 -9.1 15.7 0 0
19:15 1010 29.83 840 24.81 3 37.4 40 -9.2 15.4 0 0
19:16 1010 29.83 840 24.81 3 37.4 42 -8.6 16.6 0 0
19:17 1010 29.83 840 24.81 2.9 37.2 41 -9.1 15.6 0 0
19:18 1010 29.83 840 24.81 3 37.3 41 -8.9 15.9 0 0
19:19 1010 29.83 840 24.81 2.9 37.2 41 -9.1 15.7 0 0
19:20 1010 29.83 840 24.81 2.9 37.3 41 -9.1 15.7 0 0
19:21 1010 29.83 840 24.81 2.9 37.3 42 -8.7 16.4 0 0
19:22 1010 29.83 840 24.81 2.9 37.3 41 -9.2 15.5 0 0
19:23 1011 29.85 840 24.81 3 37.4 43 -8.5 16.7 0 0
19:24 1011 29.85 840 24.81 2.9 37.3 43 -8.6 16.6 0 0
19:25 1011 29.85 840 24.81 3 37.3 42 -8.9 16.1 0 0
19:26 1011 29.85 840 24.81 3 37.4 43 -8.5 16.6 0 0
19:27 1011 29.85 840 24.81 2.9 37.2 43 -8.5 16.6 0 0
19:28 1011 29.85 840 24.81 2.8 37.1 45 -7.9 17.8 0 0
19:29 1011 29.85 840 24.81 2.7 36.8 43 -8.6 16.5 0 0
19:30 1011 29.85 840 24.81 2.7 36.8 44 -8.3 17.1 0 0
19:31 1011 29.85 840 24.81 2.8 37 44 -8.4 17 0 0
19:32 1011 29.85 840 24.81 2.7 36.9 45 -8 17.6 0 0
19:33 1011 29.85 840 24.81 2.7 36.9 47 -7.5 18.5 0 0
19:34 1011 29.85 840 24.81 2.5 36.5 47 -7.6 18.2 0 0
19:35 1011 29.85 840 24.81 2.4 36.3 50 -7.1 19.2 0 0
19:36 1011 29.85 840 24.81 2.3 36.1 48 -7.7 18.2 0 0
19:37 1011 29.85 840 24.81 2.2 36 50 -7.2 19 0 0
19:38 1011 29.85 840 24.81 2.1 35.8 49 -7.6 18.3 0 0
19:39 1011 29.85 840 24.81 2.1 35.9 48 -7.7 18.1 0 0
19:40 1011 29.85 840 24.81 2.2 36 48 -7.7 18.2 0 0
19:41 1011 29.85 840 24.81 2.2 36 49 -7.5 18.5 0 0
19:42 1010 29.83 840 24.81 2.3 36.1 46 -8.3 17 0 0
19:43 1010 29.83 840 24.81 2.4 36.4 47 -7.9 17.9 0 0
19:44 1010 29.83 840 24.81 2.5 36.5 45 -8.3 17 0 0
19:45 1011 29.85 840 24.81 2.5 36.6 44 -8.4 16.8 0 0
19:46 1010 29.83 840 24.81 2.6 36.6 46 -7.9 17.7 0 0
19:47 1010 29.83 840 24.81 2.6 36.6 46 -7.9 17.7 0 0
19:48 1010 29.83 840 24.81 2.6 36.6 45 -8.2 17.2 0 0
19:49 1010 29.83 840 24.81 2.6 36.6 45 -8.3 17 0 0
19:50 1010 29.83 840 24.81 2.7 36.8 44 -8.3 17 0 0
19:51 1010 29.83 840 24.81 2.7 36.9 44 -8.2 17.2 0 0
19:52 1010 29.83 840 24.81 2.8 37 45 -8.2 17.3 0 0
19:53 1010 29.83 840 24.81 2.7 36.9 45 -8.1 17.4 0 0
19:54 1011 29.85 840 24.81 2.6 36.7 47 -7.7 18.1 0 0
19:55 1011 29.85 840 24.81 2.5 36.5 48 -7.4 18.6 0 0
19:56 1011 29.85 840 24.81 2.3 36.2 47 -7.9 17.8 0 0
19:57 1011 29.85 840 24.81 2.5 36.5 45 -8.3 17.1 0 0
19:58 1011 29.85 840 24.81 2.5 36.6 47 -7.6 18.3 0 0
19:59 1011 29.85 840 24.81 2.4 36.3 47 -7.8 18 0 0
20:00 1011 29.85 840 24.81 2.4 36.4 47 -7.8 18 0 0
20:01 1011 29.85 840 24.81 2.4 36.3 47 -7.8 18 0 0
20:02 1011 29.85 840 24.81 2.3 36.1 47 -7.9 17.8 0 0
20:03 1011 29.85 840 24.81 2.2 35.9 49 -7.6 18.4 0 0
20:04 1011 29.85 840 24.81 2.1 35.8 46 -8.2 17.2 0 0
20:05 1011 29.85 840 24.81 2.1 35.9 47 -8.2 17.3 0 0
20:06 1011 29.85 840 24.81 2.2 35.9 48 -7.8 17.9 0 0
20:07 1011 29.85 840 24.81 2.2 36 43 -9.1 15.6 0 0
20:08 1011 29.85 840 24.81 2.5 36.4 44 -8.6 16.6 0 0
20:09 1011 29.85 840 24.81 2.6 36.8 44 -8.5 16.7 0 0
20:10 1011 29.85 840 24.81 2.7 36.9 42 -8.8 16.1 0 0
20:11 1011 29.85 840 24.81 2.9 37.2 41 -9 15.7 0 0
20:12 1011 29.85 840 24.81 3 37.4 41 -9 15.9 0 0
20:13 1011 29.85 840 24.81 3 37.4 41 -9 15.8 0 0
20:14 1011 29.85 840 24.81 3.1 37.5 40 -9.2 15.5 0 0
20:15 1011 29.85 840 24.81 3.1 37.7 40 -9.1 15.7 0 0
20:16 1011 29.85 840 24.81 3.1 37.7 40 -9.1 15.6 0 0
20:17 1011 29.85 840 24.81 3 37.5 42 -8.5 16.6 0 0
20:18 1011 29.85 840 24.81 2.9 37.2 44 -8.3 17.1 0 0
20:19 1011 29.85 840 24.81 2.8 37 44 -8.4 16.9 0 0
20:20 1011 29.85 840 24.81 2.7 36.8 45 -8.2 17.3 0 0
20:21 1011 29.85 840 24.81 2.5 36.6 44 -8.5 16.8 0 0
20:22 1011 29.85 840 24.81 2.5 36.5 44 -8.7 16.4 0 0
20:23 1011 29.85 840 24.81 2.4 36.4 45 -8.2 17.2 0 0
20:24 1011 29.85 840 24.81 2.4 36.3 41 -9.5 14.9 0 0
20:25 1011 29.85 840 24.81 2.5 36.6 40 -9.7 14.5 0 0
20:26 1011 29.85 840 24.81 2.7 36.9 41 -9.2 15.4 0 0
20:27 1011 29.85 840 24.81 2.7 36.8 43 -8.7 16.3 0 0
20:28 1011 29.85 840 24.81 2.6 36.7 44 -8.5 16.7 0 0
20:29 1011 29.85 840 24.81 2.5 36.5 43 -8.7 16.3 0 0
20:30 1011 29.85 840 24.81 2.5 36.6 43 -8.7 16.4 0 0
20:31 1011 29.85 840 24.81 2.5 36.6 44 -8.4 16.8 0 0
20:32 1011 29.85 840 24.81 2.5 36.4 45 -8.3 17 0 0
20:33 1011 29.85 840 24.81 2.4 36.2 45 -8.4 16.9 0 0
20:34 1011 29.85 840 24.81 2.3 36.1 47 -8 17.7 0 0
20:35 1011 29.85 840 24.81 2.1 35.7 48 -7.9 17.7 0 0
20:36 1011 29.85 840 24.81 2 35.6 44 -8.9 15.9 0 0
20:37 1011 29.85 840 24.81 2.2 36 43 -9.2 15.4 0 0
20:38 1011 29.85 840 24.81 2.5 36.5 45 -8.4 16.9 0 0
20:39 1011 29.85 840 24.81 2.5 36.5 43 -8.8 16.2 0 0
20:40 1011 29.85 840 24.81 2.5 36.5 43 -8.8 16.1 0 0
20:41 1011 29.85 840 24.81 2.5 36.5 45 -8.3 17 0 0
20:42 1011 29.85 840 24.81 2.4 36.2 45 -8.3 17 0 0
20:43 1011 29.85 840 24.81 2.3 36.1 44 -8.8 16.2 0 0
20:44 1011 29.85 840 24.81 2.4 36.3 44 -8.8 16.2 0 0
20:45 1011 29.85 840 24.81 2.5 36.5 43 -9 15.9 0 0
20:46 1011 29.85 840 24.81 2.5 36.6 44 -8.6 16.5 0 0
20:47 1011 29.85 840 24.81 2.5 36.5 44 -8.5 16.7 0 0
20:48 1011 29.85 840 24.81 2.4 36.3 44 -8.7 16.3 0 0
20:49 1011 29.85 840 24.81 2.4 36.3 45 -8.5 16.8 0 0
20:50 1011 29.85 840 24.81 2.4 36.3 44 -8.7 16.4 0 0
20:51 1011 29.85 840 24.81 2.4 36.4 45 -8.4 16.8 0 0
20:52 1011 29.85 840 24.81 2.4 36.3 46 -8.1 17.5 0 0
20:53 1011 29.85 840 24.81 2.3 36.1 44 -8.7 16.3 0 0
20:54 1011 29.85 840 24.81 2.3 36.1 45 -8.4 16.9 0 0
20:55 1011 29.85 840 24.81 2.2 35.9 45 -8.5 16.6 0 0
20:56 1011 29.85 840 24.81 2.2 36 47 -8.1 17.4 0 0
20:57 1011 29.85 840 24.81 2.2 36 43 -9.2 15.5 0 0
20:58 1011 29.85 840 24.81 2.3 36.1 45 -8.5 16.7 0 0
20:59 1011 29.85 840 24.81 2.2 36 46 -8.3 17.1 0 0
21:00 1011 29.85 840 24.81 2.2 35.9 46 -8.3 17.1 0 0
21:01 1011 29.85 840 24.81 2.1 35.8 45 -8.7 16.3 0 0
21:02 1011 29.85 840 24.81 2.2 35.9 45 -8.5 16.7 0 0
21:03 1011 29.85 840 24.81 2.2 36 45 -8.5 16.8 0 0
21:04 1011 29.85 840 24.81 2.2 36 45 -8.5 16.7 0 0
21:05 1011 29.85 840 24.81 2.2 36 44 -8.9 15.9 0 0
21:06 1011 29.85 840 24.81 2.2 36 46 -8.3 17.1 0 0
21:07 1011 29.85 840 24.81 2.2 35.9 46 -8.3 17 0 0
21:08 1011 29.85 840 24.81 2.2 35.9 42 -9.4 15.1 0 0
21:09 1011 29.85 840 24.81 2.3 36.2 45 -8.6 16.6 0 0
21:10 1011 29.85 840 24.81 2.3 36.2 43 -9.1 15.6 0 0
21:11 1011 29.85 840 24.81 2.4 36.3 42 -9.3 15.3 0 0
21:12 1011 29.85 840 24.81 2.4 36.4 45 -8.5 16.8 0 0
21:13 1011 29.85 840 24.81 2.4 36.4 43 -8.9 15.9 0 0
21:14 1011 29.85 840 24.81 2.4 36.3 44 -8.8 16.2 0 0
21:15 1011 29.85 840 24.81 2.4 36.2 43 -9.1 15.7 0 0
21:16 1011 29.85 840 24.81 2.4 36.2 42 -9.1 15.5 0 0
21:17 1011 29.85 840 24.81 2.3 36.2 44 -8.7 16.3 0 0
21:18 1011 29.85 840 24.81 2.2 35.9 44 -8.8 16.1 0 0
21:19 1011 29.85 840 24.81 2.1 35.8 44 -8.8 16.1 0 0
21:20 1011 29.85 840 24.81 2.2 35.9 43 -9.3 15.3 0 0
21:21 1011 29.85 840 24.81 2.2 36 44 -8.8 16.2 0 0
21:22 1011 29.85 840 24.81 2.2 36 44 -8.9 15.9 0 0
21:23 1011 29.85 840 24.81 2.2 36 45 -8.5 16.7 0 0
21:24 1011 29.85 840 24.81 2.2 35.9 45 -8.7 16.4 0 0
21:25 1011 29.85 840 24.81 2.2 35.9 44 -8.9 15.9 0 0
21:26 1011 29.85 840 24.81 2.2 36 44 -8.9 16 0 0
21:27 1011 29.85 840 24.81 2.2 35.9 42 -9.4 15 0 0
21:28 1011 29.85 840 24.81 2.2 36 45 -8.7 16.4 0 0
21:29 1011 29.85 840 24.81 2.2 35.9 43 -9 15.7 0 0
21:30 1011 29.85 840 24.81 2.1 35.8 43 -9.1 15.7 0 0
21:31 1011 29.85 840 24.81 2.2 35.9 42 -9.4 15.1 0 0
21:32 1011 29.85 840 24.81 2.3 36.1 42 -9.5 14.9 0 0
21:33 1011 29.85 840 24.81 2.3 36.2 43 -9 15.8 0 0
21:34 1011 29.85 840 24.81 2.3 36.2 44 -8.7 16.4 0 0
21:35 1011 29.85 840 24.81 2.3 36.1 45 -8.6 16.5 0 0
21:36 1011 29.85 840 24.81 2.1 35.8 46 -8.5 16.8 0 0
21:37 1011 29.85 840 24.81 2 35.5 45 -8.7 16.3 0 0
21:38 1011 29.85 840 24.81 1.9 35.4 44 -9.2 15.4 0 0
21:39 1011 29.85 840 24.81 2 35.5 44 -8.9 16 0 0
21:40 1011 29.85 840 24.81 1.9 35.4 48 -8.1 17.4 0 0
21:41 1011 29.85 840 24.81 1.7 35.1 44 -9.2 15.4 0 0
21:42 1011 29.85 840 24.81 1.8 35.2 45 -8.9 16 0 0
21:43 1011 29.85 840 24.81 2 35.5 43 -9.4 15.1 0 0
21:44 1011 29.85 840 24.81 2.1 35.8 43 -9.1 15.6 0 0
21:45 1011 29.85 840 24.81 2.1 35.7 45 -8.7 16.3 0 0
21:46 1011 29.85 840 24.81 2 35.6 46 -8.5 16.8 0 0
21:47 1011 29.85 840 24.81 1.9 35.4 46 -8.5 16.6 0 0
21:48 1011 29.85 840 24.81 1.8 35.3 46 -8.7 16.4 0 0
21:49 1011 29.85 840 24.81 1.8 35.3 47 -8.4 16.9 0 0
21:50 1011 29.85 840 24.81 1.8 35.2 45 -9 15.7 0 0
21:51 1010 29.83 840 24.81 1.9 35.5 45 -8.9 15.9 0 0
21:52 1010 29.83 840 24.81 2 35.7 45 -8.8 16.1 0 0
21:53 1010 29.83 840 24.81 2 35.6 45 -8.9 16 0 0
21:54 1010 29.83 840 24.81 2 35.7 47 -8.2 17.3 0 0
21:55 1010 29.83 840 24.81 1.9 35.4 48 -8 17.6 0 0
21:56 1010 29.83 840 24.81 1.7 35 49 -8 17.5 0 0
21:57 1010 29.83 840 24.81 1.6 34.8 47 -8.5 16.7 0 0
21:58 1010 29.83 840 24.81 1.6 34.9 42 -10 14 0 0
21:59 1010 29.83 840 24.81 1.9 35.4 47 -8.4 17 0 0
22:00 1010 29.83 840 24.81 1.9 35.4 42 -9.9 14.3 0 0
22:01 1010 29.83 840 24.81 2.2 35.9 42 -9.3 15.2 0 0
22:02 1010 29.83 840 24.81 2.3 36.2 43 -9.1 15.6 0 0
22:03 1010 29.83 840 24.81 2.4 36.3 44 -8.5 16.6 0 0
22:04 1010 29.83 840 24.81 2.2 35.9 46 -8.2 17.3 0 0
22:05 1010 29.83 840 24.81 2.2 36 45 -8.5 16.7 0 0
22:06 1010 29.83 840 24.81 2.3 36.1 43 -9 15.8 0 0
22:07 1010 29.83 840 24.81 2.5 36.5 40 -9.7 14.5 0 0
22:08 1010 29.83 840 24.81 2.6 36.7 43 -8.8 16.1 0 0
22:09 1010 29.83 840 24.81 2.5 36.5 44 -8.5 16.7 0 0
22:10 1010 29.83 840 24.81 2.3 36.2 45 -8.6 16.6 0 0
22:11 1010 29.83 840 24.81 2.2 36 41 -9.6 14.7 0 0
22:12 1011 29.85 840 24.81 2.4 36.3 44 -8.7 16.4 0 0
22:13 1011 29.85 840 24.81 2.3 36.1 47 -8 17.6 0 0
22:14 1011 29.85 840 24.81 2 35.6 48 -7.8 18 0 0
22:15 1011 29.85 840 24.81 1.7 35.1 50 -7.7 18.2 0 0
22:16 1011 29.85 840 24.81 1.6 34.8 48 -8.3 17.1 0 0
22:17 1011 29.85 840 24.81 1.5 34.7 48 -8.3 17 0 0
22:18 1011 29.85 840 24.81 1.6 34.8 48 -8.2 17.3 0 0
22:19 1011 29.85 840 24.81 1.5 34.8 49 -8.1 17.4 0 0
22:20 1011 29.85 840 24.81 1.5 34.8 45 -9 15.8 0 0
22:21 1011 29.85 840 24.81 1.7 35 45 -9 15.9 0 0
22:22 1011 29.85 840 24.81 1.7 35.1 44 -9.4 15.1 0 0
22:23 1011 29.85 840 24.81 1.9 35.3 46 -8.6 16.4 0 0
22:24 1011 29.85 840 24.81 1.8 35.2 48 -8.2 17.2 0 0
22:25 1011 29.85 840 24.81 1.7 35 46 -8.9 16 0 0
22:26 1011 29.85 840 24.81 1.6 35 48 -8.3 17 0 0
22:27 1011 29.85 840 24.81 1.7 35 47 -8.5 16.8 0 0
22:28 1011 29.85 840 24.81 1.7 35 47 -8.3 17 0 0
22:29 1011 29.85 840 24.81 1.7 35 47 -8.5 16.8 0 0
22:30 1011 29.85 840 24.81 1.6 35 48 -8.2 17.2 0 0
22:31 1010 29.83 840 24.81 1.5 34.8 49 -8 17.6 0 0
22:32 1011 29.85 840 24.81 1.4 34.6 48 -8.5 16.7 0 0
22:33 1010 29.83 840 24.81 1.6 34.8 49 -8.1 17.3 0 0
22:34 1010 29.83 840 24.81 1.5 34.7 48 -8.3 17.1 0 0
22:35 1010 29.83 840 24.81 1.5 34.7 47 -8.6 16.5 0 0
22:36 1010 29.83 840 24.81 1.6 34.8 46 -8.8 16.2 0 0
22:37 1010 29.83 840 24.81 1.8 35.2 46 -8.7 16.3 0 0
22:38 1010 29.83 840 24.81 1.7 35 52 -7.2 19 0 0
22:39 1010 29.83 840 24.81 1.2 34.2 55 -6.9 19.5 0 0
22:40 1010 29.83 840 24.81 1.1 33.9 47 -8.9 15.9 0 0
22:41 1010 29.83 840 24.81 1.4 34.5 45 -9.2 15.4 0 0
22:42 1010 29.83 840 24.81 1.7 35.1 45 -9.1 15.7 0 0
22:43 1011 29.85 840 24.81 1.8 35.3 48 -8 17.5 0 0
22:44 1011 29.85 840 24.81 1.7 35.1 49 -7.9 17.8 0 0
22:45 1011 29.85 840 24.81 1.7 35 47 -8.4 16.8 0 0
22:46 1011 29.85 840 24.81 1.7 35.1 48 -8.1 17.5 0 0
22:47 1011 29.85 840 24.81 1.8 35.2 48 -8.1 17.5 0 0
22:48 1011 29.85 840 24.81 1.7 35.1 48 -8.3 17.1 0 0
22:49 1011 29.85 840 24.81 1.7 35 47 -8.4 17 0 0
22:50 1011 29.85 840 24.81 1.7 35 48 -8.3 17.1 0 0
22:51 1011 29.85 840 24.81 1.7 35 48 -8.2 17.3 0 0
22:52 1011 29.85 840 24.81 1.7 35 49 -7.8 17.9 0 0
22:53 1011 29.85 840 24.81 1.6 34.9 52 -7.2 19 0 0
22:54 1011 29.85 840 24.81 1.4 34.6 51 -7.7 18.1 0 0
22:55 1011 29.85 840 24.81 1.4 34.5 51 -7.7 18.1 0 0
22:56 1011 29.85 840 24.81 1.4 34.5 52 -7.4 18.7 0 0
22:57 1011 29.85 840 24.81 1.4 34.5 52 -7.5 18.6 0 0
22:58 1011 29.85 840 24.81 1.3 34.3 52 -7.5 18.5 0 0
22:59 1011 29.85 840 24.81 1.2 34.2 52 -7.5 18.5 0 0
23:00 1011 29.85 840 24.81 1.2 34.2 52 -7.5 18.5 0 0
23:01 1011 29.85 840 24.81 1.2 34.1 52 -7.6 18.4 0 0
23:02 1011 29.85 840 24.81 1.2 34.1 51 -7.8 17.9 0 0
23:03 1011 29.85 840 24.81 1.2 34.2 52 -7.5 18.4 0 0
23:04 1011 29.85 840 24.81 1.2 34.1 54 -7.2 19.1 0 0
23:05 1011 29.85 840 24.81 1 33.9 56 -6.7 19.9 0 0
23:06 1011 29.85 840 24.81 0.8 33.4 58 -6.6 20.1 0 0
23:07 1011 29.85 840 24.81 0.6 33 58 -6.7 19.9 0 0
23:08 1011 29.85 840 24.81 0.5 32.9 59 -6.6 20.1 0 0
23:09 1011 29.85 840 24.81 0.3 32.6 58 -6.9 19.5 0 0
23:10 1011 29.85 840 24.81 0.3 32.6 58 -7 19.4 0 0
23:11 1011 29.85 840 24.81 0.4 32.7 58 -7 19.3 0 0
23:12 1011 29.85 840 24.81 0.4 32.8 56 -7.4 18.8 0 0
23:13 1011 29.85 840 24.81 0.6 33 57 -7.1 19.3 0 0
23:14 1011 29.85 840 24.81 0.6 33.1 56 -7.2 19.1 0 0
23:15 1011 29.85 840 24.81 0.7 33.2 55 -7.3 18.8 0 0
23:16 1011 29.85 840 24.81 0.8 33.4 56 -7.1 19.3 0 0
23:17 1011 29.85 840 24.81 0.8 33.4 57 -6.9 19.6 0 0
23:18 1011 29.85 841 24.83 0.6 33.1 58 -6.7 19.9 0 0
23:19 1011 29.85 841 24.83 0.4 32.7 59 -6.8 19.8 0 0
23:20 1011 29.85 841 24.83 0.2 32.4 60 -6.6 20.1 0 0
23:21 1011 29.85 841 24.83 0.1 32.2 61 -6.6 20.1 0 0
23:22 1011 29.85 840 24.81 -0.1 31.9 61 -6.6 20.1 0 0
23:23 1011 29.85 840 24.81 -0.2 31.7 61 -6.8 19.7 0 0
23:24 1011 29.85 840 24.81 -0.2 31.7 60 -7 19.3 0 0
23:25 1011 29.85 840 24.81 -0.1 31.8 60 -7 19.4 0 0
23:26 1011 29.85 840 24.81 -0.1 31.9 59 -7.1 19.2 0 0
23:27 1011 29.85 840 24.81 -0 32 60 -6.9 19.6 0 0
23:28 1011 29.85 840 24.81 -0 31.9 59 -7.1 19.2 0 0
23:29 1011 29.85 840 24.81 -0 32 59 -7.1 19.2 0 0
23:30 1011 29.85 840 24.81 -0 32 60 -6.9 19.6 0 0
23:31 1011 29.85 840 24.81 -0 31.9 59 -7.2 19.1 0 0
23:32 1011 29.85 840 24.81 -0 31.9 59 -7.1 19.3 0 0
23:33 1011 29.85 840 24.81 -0 31.9 59 -7.1 19.2 0 0
23:34 1011 29.85 840 24.81 -0 32 59 -7.1 19.2 0 0
23:35 1011 29.85 840 24.81 -0 31.9 59 -7.1 19.2 0 0
23:36 1011 29.85 840 24.81 -0 32 58 -7.4 18.8 0 0
23:37 1011 29.85 840 24.81 0.1 32.1 58 -7.3 18.9 0 0
23:38 1011 29.85 840 24.81 0.1 32.3 58 -7.1 19.2 0 0
23:39 1011 29.85 840 24.81 0.1 32.2 58 -7.2 19 0 0
23:40 1011 29.85 840 24.81 0.1 32.2 56 -7.8 18 0 0
23:41 1011 29.85 840 24.81 0.3 32.5 55 -7.6 18.3 0 0
23:42 1011 29.85 840 24.81 0.5 32.8 55 -7.5 18.5 0 0
23:43 1011 29.85 840 24.81 0.5 33 56 -7.3 18.8 0 0
23:44 1011 29.85 840 24.81 0.5 33 57 -7.1 19.2 0 0
23:45 1011 29.85 840 24.81 0.4 32.8 57 -7.2 19.1 0 0
23:46 1011 29.85 840 24.81 0.4 32.8 57 -7 19.4 0 0
23:47 1011 29.85 840 24.81 0.3 32.6 59 -6.8 19.8 0 0
23:48 1011 29.85 840 24.81 0.1 32.2 60 -6.7 19.9 0 0
23:49 1011 29.85 840 24.81 -0.1 31.8 62 -6.6 20.1 0 0
23:50 1011 29.85 840 24.81 -0.3 31.4 63 -6.6 20.1 0 0
23:51 1011 29.85 840 24.81 -0.5 31 64 -6.5 20.2 0 0
23:52 1011 29.85 840 24.81 -0.7 30.7 65 -6.5 20.3 0 0
23:53 1011 29.85 840 24.81 -1 30.3 66 -6.6 20.2 0 0
23:54 1011 29.85 840 24.81 -1.1 30 67 -6.5 20.3 0 0
23:55 1011 29.85 840 24.81 -1.2 29.9 67 -6.5 20.3 0 0
23:56 1011 29.85 840 24.81 -1.3 29.6 68 -6.5 20.2 0 0
23:57 1011 29.85 840 24.81 -1.4 29.6 67 -6.7 19.9 0 0
23:58 1011 29.85 840 24.81 -1.3 29.7 66 -6.8 19.8 0 0
23:59 1011 29.85 840 24.81 -1.1 29.9 66 -6.7 19.9 0 0
24:00 1011 29.85 840 24.81 -1.1 30.1 66 -6.7 20 0 0